createdAt,value
2018-09-18T00:00:26.550Z,100623.23
2018-09-18T00:02:57.735Z,100619.90
2018-09-18T00:05:28.645Z,100618.92
2018-09-18T00:07:59.402Z,100618.75
2018-09-18T00:10:30.862Z,100618.62
2018-09-18T00:13:01.665Z,100613.63
2018-09-18T00:15:32.668Z,100611.31
2018-09-18T00:18:03.464Z,100607.45
2018-09-18T00:20:34.865Z,100602.83
2018-09-18T00:23:05.698Z,100606.31
2018-09-18T00:25:37.387Z,100598.64
2018-09-18T00:28:09.137Z,100604.35
2018-09-18T00:30:39.075Z,100603.89
2018-09-18T00:33:09.756Z,100604.41
2018-09-18T00:35:41.132Z,100610.11
2018-09-18T00:38:11.753Z,100610.45
2018-09-18T00:40:42.678Z,100606.31
2018-09-18T00:43:14.797Z,100605.00
2018-09-18T00:45:44.931Z,100604.84
2018-09-18T00:48:15.842Z,100596.34
2018-09-18T00:50:46.877Z,100598.52
2018-09-18T00:53:17.848Z,100601.55
2018-09-18T00:55:48.792Z,100597.56
2018-09-18T00:58:19.592Z,100602.25
2018-09-18T01:00:50.596Z,100597.78
2018-09-18T01:03:21.850Z,100601.12
2018-09-18T01:05:52.716Z,100603.14
2018-09-18T01:08:23.750Z,100604.17
2018-09-18T01:10:54.645Z,100604.00
2018-09-18T01:13:30.467Z,100609.33
2018-09-18T01:16:00.340Z,100604.52
2018-09-18T01:18:45.218Z,100606.69
2018-09-18T01:21:15.072Z,100602.56
2018-09-18T01:23:45.423Z,100605.05
2018-09-18T01:26:15.589Z,100599.05
2018-09-18T01:28:45.664Z,100601.55
2018-09-18T01:31:15.962Z,100595.55
2018-09-18T01:33:45.841Z,100595.73
2018-09-18T01:36:15.716Z,100597.75
2018-09-18T01:38:45.959Z,100596.42
2018-09-18T01:41:15.724Z,100588.77
2018-09-18T01:43:45.711Z,100588.10
2018-09-18T01:46:15.787Z,100589.12
2018-09-18T01:48:46.101Z,100588.12
2018-09-18T01:51:16.566Z,100582.61
2018-09-18T01:53:46.331Z,100584.28
2018-09-18T01:56:16.592Z,100582.16
2018-09-18T01:58:46.598Z,100579.83
2018-09-18T02:01:16.425Z,100580.64
2018-09-18T02:03:46.563Z,100581.85
2018-09-18T02:06:16.477Z,100577.00
2018-09-18T02:08:49.284Z,100573.51
2018-09-18T02:11:19.305Z,100578.19
2018-09-18T02:13:50.043Z,100576.52
2018-09-18T02:16:21.118Z,100574.20
2018-09-18T02:18:51.957Z,100575.86
2018-09-18T02:21:23.031Z,100576.53
2018-09-18T02:23:54.006Z,100572.68
2018-09-18T02:26:24.640Z,100578.69
2018-09-18T02:28:55.836Z,100576.69
2018-09-18T02:31:26.447Z,100575.55
2018-09-18T02:33:56.833Z,100577.22
2018-09-18T02:36:27.634Z,100569.69
2018-09-18T02:38:58.579Z,100566.88
2018-09-18T02:41:29.776Z,100576.05
2018-09-18T02:44:00.771Z,100580.53
2018-09-18T02:46:31.779Z,100575.70
2018-09-18T02:49:02.835Z,100574.22
2018-09-18T02:51:33.657Z,100574.50
2018-09-18T02:54:04.618Z,100571.34
2018-09-18T02:56:35.430Z,100568.35
2018-09-18T02:59:07.022Z,100569.50
2018-09-18T03:01:37.996Z,100579.35
2018-09-18T03:04:08.830Z,100574.69
2018-09-18T03:06:39.628Z,100574.84
2018-09-18T03:09:11.619Z,100575.02
2018-09-18T03:11:41.511Z,100576.17
2018-09-18T03:14:13.756Z,100571.84
2018-09-18T03:16:43.578Z,100580.50
2018-09-18T03:19:14.636Z,100575.35
2018-09-18T03:21:45.462Z,100579.84
2018-09-18T03:24:16.951Z,100577.69
2018-09-18T03:26:47.757Z,100584.35
2018-09-18T03:29:18.749Z,100588.02
2018-09-18T03:31:49.300Z,100583.16
2018-09-18T03:34:19.989Z,100581.16
2018-09-18T03:36:50.873Z,100579.83
2018-09-18T03:39:21.973Z,100586.50
2018-09-18T03:41:52.788Z,100577.02
2018-09-18T03:44:24.239Z,100581.16
2018-09-18T03:46:54.790Z,100567.83
2018-09-18T03:49:25.920Z,100567.02
2018-09-18T03:51:56.749Z,100560.17
2018-09-18T03:54:29.629Z,100563.79
2018-09-18T03:56:59.347Z,100568.45
2018-09-18T03:59:29.992Z,100562.45
2018-09-18T04:02:01.598Z,100561.98
2018-09-18T04:04:31.388Z,100561.47
2018-09-18T04:07:02.946Z,100561.13
2018-09-18T04:09:33.770Z,100567.80
2018-09-18T04:12:04.837Z,100563.13
2018-09-18T04:14:35.618Z,100562.31
2018-09-18T04:17:06.898Z,100564.13
2018-09-18T04:19:37.725Z,100561.98
2018-09-18T04:22:08.794Z,100568.64
2018-09-18T04:24:39.634Z,100580.12
2018-09-18T04:27:10.749Z,100577.12
2018-09-18T04:29:42.788Z,100575.97
2018-09-18T04:32:12.777Z,100571.97
2018-09-18T04:34:42.557Z,100576.30
2018-09-18T04:37:13.609Z,100579.95
2018-09-18T04:39:44.545Z,100578.77
2018-09-18T04:42:15.793Z,100576.62
2018-09-18T04:44:46.713Z,100578.95
2018-09-18T04:47:17.680Z,100580.42
2018-09-18T04:49:54.093Z,100581.42
2018-09-18T04:52:24.007Z,100585.56
2018-09-18T04:54:54.625Z,100590.55
2018-09-18T04:57:24.754Z,100582.09
2018-09-18T04:59:54.541Z,100582.09
2018-09-18T05:02:24.798Z,100589.08
2018-09-18T05:04:54.707Z,100588.59
2018-09-18T05:07:24.541Z,100591.75
2018-09-18T05:09:55.950Z,100591.41
2018-09-18T05:12:26.727Z,100592.41
2018-09-18T05:14:57.664Z,100593.09
2018-09-18T05:17:28.543Z,100598.27
2018-09-18T05:19:59.825Z,100596.59
2018-09-18T05:22:30.648Z,100601.76
2018-09-18T05:25:01.726Z,100601.44
2018-09-18T05:27:32.584Z,100607.77
2018-09-18T05:30:03.559Z,100607.11
2018-09-18T05:32:34.812Z,100609.10
2018-09-18T05:35:06.098Z,100606.11
2018-09-18T05:37:36.904Z,100609.45
2018-09-18T05:40:08.017Z,100607.47
2018-09-18T05:42:38.595Z,100606.33
2018-09-18T05:45:09.798Z,100602.16
2018-09-18T05:47:40.640Z,100600.83
2018-09-18T05:50:11.815Z,100599.83
2018-09-18T05:52:42.642Z,100603.50
2018-09-18T05:55:13.558Z,100605.69
2018-09-18T05:57:44.760Z,100603.50
2018-09-18T06:00:15.832Z,100605.17
2018-09-18T06:02:48.792Z,100600.17
2018-09-18T06:05:18.854Z,100601.36
2018-09-18T06:07:48.713Z,100603.53
2018-09-18T06:10:20.756Z,100599.37
2018-09-18T06:12:52.995Z,100606.55
2018-09-18T06:15:24.121Z,100609.70
2018-09-18T06:17:55.126Z,100606.00
2018-09-18T06:20:25.653Z,100600.48
2018-09-18T06:22:58.389Z,100609.27
2018-09-18T06:25:28.378Z,100611.08
2018-09-18T06:27:58.283Z,100617.36
2018-09-18T06:30:28.299Z,100620.84
2018-09-18T06:32:58.861Z,100617.28
2018-09-18T06:35:29.710Z,100619.84
2018-09-18T06:38:00.704Z,100618.92
2018-09-18T06:40:33.068Z,100615.84
2018-09-18T06:43:02.988Z,100623.62
2018-09-18T06:45:34.076Z,100613.96
2018-09-18T06:48:04.733Z,100615.43
2018-09-18T06:50:35.875Z,100617.96
2018-09-18T06:53:07.046Z,100619.87
2018-09-18T06:55:37.819Z,100619.06
2018-09-18T06:58:08.661Z,100615.53
2018-09-18T07:00:39.597Z,100623.43
2018-09-18T07:03:10.426Z,100621.62
2018-09-18T07:05:41.843Z,100623.17
2018-09-18T07:08:12.631Z,100613.70
2018-09-18T07:10:43.587Z,100617.34
2018-09-18T07:13:14.714Z,100618.25
2018-09-18T07:15:45.585Z,100620.84
2018-09-18T07:18:16.376Z,100620.78
2018-09-18T07:20:47.893Z,100618.77
2018-09-18T07:23:18.610Z,100618.86
2018-09-18T07:25:49.621Z,100612.20
2018-09-18T07:28:20.845Z,100615.88
2018-09-18T07:30:51.857Z,100613.19
2018-09-18T07:33:22.849Z,100613.91
2018-09-18T07:35:53.607Z,100609.25
2018-09-18T07:38:24.536Z,100609.55
2018-09-18T07:40:55.797Z,100609.22
2018-09-18T07:43:26.725Z,100609.63
2018-09-18T07:45:57.632Z,100611.97
2018-09-18T07:48:35.199Z,100607.17
2018-09-18T07:51:06.341Z,100609.70
2018-09-18T07:53:36.194Z,100606.73
2018-09-18T07:56:13.919Z,100603.96
2018-09-18T07:58:43.624Z,100600.98
2018-09-18T08:01:13.498Z,100607.53
2018-09-18T08:03:43.314Z,100603.09
2018-09-18T08:06:13.119Z,100607.96
2018-09-18T08:08:43.448Z,100606.67
2018-09-18T08:11:13.222Z,100601.06
2018-09-18T08:13:43.141Z,100603.42
2018-09-18T08:16:13.472Z,100595.90
2018-09-18T08:18:43.618Z,100592.14
2018-09-18T08:21:13.948Z,100594.09
2018-09-18T08:23:43.707Z,100602.25
2018-09-18T08:26:13.642Z,100595.00
2018-09-18T08:28:44.561Z,100594.08
2018-09-18T08:31:16.062Z,100590.00
2018-09-18T08:33:46.712Z,100594.17
2018-09-18T08:36:17.472Z,100593.77
2018-09-18T08:38:48.805Z,100587.31
2018-09-18T08:41:19.634Z,100592.06
2018-09-18T08:43:50.584Z,100584.98
2018-09-18T08:46:21.642Z,100591.64
2018-09-18T08:48:57.755Z,100582.79
2018-09-18T08:51:27.967Z,100580.48
2018-09-18T08:53:58.446Z,100579.59
2018-09-18T08:56:28.210Z,100572.95
2018-09-18T08:58:58.528Z,100572.37
2018-09-18T09:01:28.296Z,100569.33
2018-09-18T09:03:58.762Z,100557.28
2018-09-18T09:06:30.920Z,100560.55
2018-09-18T09:09:00.935Z,100559.59
2018-09-18T09:11:31.698Z,100556.25
2018-09-18T09:14:02.450Z,100559.55
2018-09-18T09:16:33.758Z,100557.22
2018-09-18T09:19:04.838Z,100548.81
2018-09-18T09:21:35.641Z,100549.02
2018-09-18T09:24:06.653Z,100554.38
2018-09-18T09:26:37.631Z,100547.94
2018-09-18T09:29:08.537Z,100547.29
2018-09-18T09:31:39.384Z,100545.46
2018-09-18T09:34:09.606Z,100532.84
2018-09-18T09:36:40.652Z,100541.36
2018-09-18T09:39:12.786Z,100537.61
2018-09-18T09:41:42.811Z,100536.47
2018-09-18T09:44:13.666Z,100532.83
2018-09-18T09:46:44.558Z,100529.70
2018-09-18T09:49:16.399Z,100537.95
2018-09-18T09:51:46.891Z,100519.52
2018-09-18T09:54:17.760Z,100528.44
2018-09-18T09:56:49.655Z,100518.87
2018-09-18T09:59:19.614Z,100520.39
2018-09-18T10:01:55.840Z,100524.11
2018-09-18T10:04:25.824Z,100517.81
2018-09-18T10:06:55.817Z,100518.58
2018-09-18T10:09:25.692Z,100519.61
2018-09-18T10:11:55.447Z,100518.77
2018-09-18T10:14:25.808Z,100516.15
2018-09-18T10:16:56.625Z,100514.25
2018-09-18T10:19:27.468Z,100512.72
2018-09-18T10:21:58.864Z,100504.45
2018-09-18T10:24:29.698Z,100502.97
2018-09-18T10:27:00.845Z,100501.55
2018-09-18T10:29:31.618Z,100495.34
2018-09-18T10:32:02.419Z,100493.45
2018-09-18T10:34:32.380Z,100499.56
2018-09-18T10:37:03.810Z,100493.89
2018-09-18T10:39:34.629Z,100492.88
2018-09-18T10:42:06.020Z,100495.23
2018-09-18T10:44:36.757Z,100490.42
2018-09-18T10:47:07.785Z,100486.53
2018-09-18T10:49:38.461Z,100487.50
2018-09-18T10:52:09.878Z,100483.84
2018-09-18T10:54:40.626Z,100484.86
2018-09-18T10:57:11.582Z,100480.72
2018-09-18T10:59:42.481Z,100474.00
2018-09-18T11:02:13.625Z,100470.02
2018-09-18T11:04:45.064Z,100465.87
2018-09-18T11:07:15.866Z,100461.66
2018-09-18T11:09:46.718Z,100449.47
2018-09-18T11:12:17.659Z,100444.32
2018-09-18T11:14:48.980Z,100446.34
2018-09-18T11:17:19.695Z,100442.09
2018-09-18T11:19:51.348Z,100433.97
2018-09-18T11:22:21.553Z,100435.38
2018-09-18T11:24:52.614Z,100426.17
2018-09-18T11:27:34.471Z,100426.52
2018-09-18T11:30:04.793Z,100423.31
2018-09-18T11:32:42.343Z,100421.95
2018-09-18T11:35:12.136Z,100415.95
2018-09-18T11:37:42.536Z,100409.39
2018-09-18T11:40:12.574Z,100418.97
2018-09-18T11:42:42.908Z,100410.52
2018-09-18T11:45:12.775Z,100415.46
2018-09-18T11:47:42.882Z,100409.98
2018-09-18T11:50:13.095Z,100400.95
2018-09-18T11:52:43.494Z,100406.43
2018-09-18T11:55:13.571Z,100397.94
2018-09-18T11:57:43.331Z,100401.51
2018-09-18T12:00:13.223Z,100385.98
2018-09-18T12:02:43.199Z,100391.19
2018-09-18T12:05:13.580Z,100393.36
2018-09-18T12:07:43.442Z,100386.51
2018-09-18T12:10:13.225Z,100381.85
2018-09-18T12:12:43.521Z,100385.97
2018-09-18T12:15:13.394Z,100382.69
2018-09-18T12:17:43.846Z,100369.55
2018-09-18T12:20:14.637Z,100374.23
2018-09-18T12:22:46.145Z,100370.66
2018-09-18T12:25:16.808Z,100362.19
2018-09-18T12:27:47.623Z,100359.45
2018-09-18T12:30:18.636Z,100362.72
2018-09-18T12:32:49.594Z,100356.16
2018-09-18T12:35:20.431Z,100361.34
2018-09-18T12:37:51.434Z,100360.75
2018-09-18T12:40:22.424Z,100359.09
2018-09-18T12:42:53.649Z,100350.88
2018-09-18T12:45:25.495Z,100352.78
2018-09-18T12:47:55.462Z,100345.96
2018-09-18T12:50:26.926Z,100342.35
2018-09-18T12:52:57.916Z,100345.09
2018-09-18T12:55:28.558Z,100341.00
2018-09-18T12:57:59.582Z,100342.65
2018-09-18T13:00:30.453Z,100340.69
2018-09-18T13:03:01.873Z,100334.96
2018-09-18T13:05:32.848Z,100337.14
2018-09-18T13:08:03.790Z,100329.35
2018-09-18T13:10:34.727Z,100328.72
2018-09-18T13:13:05.543Z,100322.34
2018-09-18T13:15:36.510Z,100317.08
2018-09-18T13:18:07.947Z,100313.21
2018-09-18T13:20:38.904Z,100309.91
2018-09-18T13:23:09.856Z,100302.34
2018-09-18T13:25:40.615Z,100302.88
2018-09-18T13:28:11.608Z,100299.95
2018-09-18T13:30:42.798Z,100300.22
2018-09-18T13:33:13.604Z,100303.46
2018-09-18T13:35:44.602Z,100289.45
2018-09-18T13:38:15.353Z,100283.31
2018-09-18T13:40:46.931Z,100274.11
2018-09-18T13:43:17.985Z,100282.25
2018-09-18T13:45:49.367Z,100282.17
2018-09-18T13:48:19.997Z,100278.22
2018-09-18T13:50:50.821Z,100278.02
2018-09-18T13:53:21.845Z,100278.39
2018-09-18T13:55:52.757Z,100276.42
2018-09-18T13:58:23.522Z,100275.89
2018-09-18T14:00:54.628Z,100269.90
2018-09-18T14:03:25.528Z,100272.34
2018-09-18T14:05:56.644Z,100271.77
2018-09-18T14:08:27.349Z,100267.13
2018-09-18T14:10:58.852Z,100267.70
2018-09-18T14:13:29.636Z,100268.25
2018-09-18T14:16:00.536Z,100260.01
2018-09-18T14:18:31.412Z,100258.34
2018-09-18T14:21:03.063Z,100257.59
2018-09-18T14:23:33.765Z,100259.31
2018-09-18T14:26:04.579Z,100251.14
2018-09-18T14:28:35.603Z,100253.84
2018-09-18T14:31:06.417Z,100257.80
2018-09-18T14:33:37.853Z,100246.03
2018-09-18T14:36:08.701Z,100249.05
2018-09-18T14:38:39.544Z,100244.40
2018-09-18T14:41:10.561Z,100246.00
2018-09-18T14:43:41.433Z,100240.30
2018-09-18T14:46:12.790Z,100239.45
2018-09-18T14:48:42.631Z,100235.34
2018-09-18T14:51:13.664Z,100245.73
2018-09-18T14:53:44.667Z,100235.31
2018-09-18T14:56:15.551Z,100235.39
2018-09-18T14:58:46.535Z,100237.02
2018-09-18T15:01:17.344Z,100242.61
2018-09-18T15:03:48.814Z,100246.00
2018-09-18T15:06:19.772Z,100241.14
2018-09-18T15:08:50.658Z,100243.34
2018-09-18T15:11:20.760Z,100242.22
2018-09-18T15:13:51.626Z,100244.66
2018-09-18T15:16:22.375Z,100244.39
2018-09-18T15:18:53.823Z,100235.62
2018-09-18T15:21:24.592Z,100235.08
2018-09-18T15:23:55.692Z,100234.55
2018-09-18T15:26:26.464Z,100237.02
2018-09-18T15:28:58.052Z,100239.83
2018-09-18T15:31:28.826Z,100240.41
2018-09-18T15:33:59.817Z,100248.93
2018-09-18T15:36:30.722Z,100242.62
2018-09-18T15:39:01.558Z,100240.44
2018-09-18T15:41:32.465Z,100243.48
2018-09-18T15:44:03.431Z,100242.12
2018-09-18T15:46:35.062Z,100242.69
2018-09-18T15:49:05.757Z,100239.95
2018-09-18T15:51:37.386Z,100234.27
2018-09-18T15:54:07.896Z,100231.25
2018-09-18T15:56:37.826Z,100238.09
2018-09-18T15:59:09.640Z,100233.70
2018-09-18T16:01:39.569Z,100236.98
2018-09-18T16:04:10.470Z,100231.54
2018-09-18T16:06:42.016Z,100235.65
2018-09-18T16:09:12.879Z,100239.19
2018-09-18T16:11:44.782Z,100238.11
2018-09-18T16:14:14.592Z,100233.45
2018-09-18T16:16:45.530Z,100234.82
2018-09-18T16:19:16.704Z,100239.43
2018-09-18T16:21:47.730Z,100232.88
2018-09-18T16:24:17.503Z,100233.14
2018-09-18T16:26:48.648Z,100233.97
2018-09-18T16:29:19.917Z,100233.08
2018-09-18T16:31:50.662Z,100242.61
2018-09-18T16:34:20.420Z,100242.06
2018-09-18T16:36:52.103Z,100234.89
2018-09-18T16:39:23.022Z,100234.31
2018-09-18T16:41:53.894Z,100237.31
2018-09-18T16:44:25.071Z,100239.70
2018-09-18T16:46:56.030Z,100240.41
2018-09-18T16:49:26.733Z,100246.30
2018-09-18T16:51:57.631Z,100239.42
2018-09-18T16:54:28.670Z,100242.64
2018-09-18T16:56:59.883Z,100238.80
2018-09-18T16:59:30.986Z,100245.55
2018-09-18T17:02:01.745Z,100243.72
2018-09-18T17:04:32.727Z,100237.67
2018-09-18T17:07:03.801Z,100240.23
2018-09-18T17:09:34.522Z,100241.44
2018-09-18T17:12:05.967Z,100246.27
2018-09-18T17:14:36.682Z,100252.42
2018-09-18T17:17:07.676Z,100251.80
2018-09-18T17:19:38.535Z,100257.99
2018-09-18T17:22:09.771Z,100252.15
2018-09-18T17:24:40.590Z,100259.11
2018-09-18T17:27:11.727Z,100263.47
2018-09-18T17:29:42.723Z,100264.11
2018-09-18T17:32:13.546Z,100265.40
2018-09-18T17:34:45.340Z,100266.98
2018-09-18T17:37:16.921Z,100262.12
2018-09-18T17:39:46.894Z,100263.05
2018-09-18T17:42:17.712Z,100269.17
2018-09-18T17:44:57.066Z,100267.98
2018-09-18T17:47:27.477Z,100272.30
2018-09-18T17:49:57.614Z,100269.91
2018-09-18T17:52:27.431Z,100273.33
2018-09-18T17:54:57.364Z,100276.84
2018-09-18T17:57:27.116Z,100272.30
2018-09-18T17:59:56.936Z,100276.80
2018-09-18T18:02:26.739Z,100278.85
2018-09-18T18:04:56.636Z,100278.83
2018-09-18T18:07:27.418Z,100275.67
2018-09-18T18:09:58.802Z,100279.31
2018-09-18T18:12:29.512Z,100277.72
2018-09-18T18:15:00.822Z,100275.85
2018-09-18T18:17:30.658Z,100279.50
2018-09-18T18:20:01.785Z,100276.73
2018-09-18T18:22:31.620Z,100277.59
2018-09-18T18:25:02.601Z,100280.67
2018-09-18T18:27:34.166Z,100282.17
2018-09-18T18:30:04.978Z,100284.78
2018-09-18T18:32:35.751Z,100283.45
2018-09-18T18:35:08.049Z,100292.02
2018-09-18T18:37:39.330Z,100300.73
2018-09-18T18:40:09.417Z,100297.92
2018-09-18T18:42:40.022Z,100296.27
2018-09-18T18:45:10.660Z,100299.81
2018-09-18T18:47:41.665Z,100305.01
2018-09-18T18:50:20.288Z,100303.83
2018-09-18T18:52:50.390Z,100309.29
2018-09-18T18:55:20.446Z,100309.88
2018-09-18T18:57:51.236Z,100312.63
2018-09-18T19:00:21.121Z,100315.34
2018-09-18T19:02:51.495Z,100322.77
2018-09-18T19:05:21.630Z,100305.39
2018-09-18T19:07:51.394Z,100323.48
2018-09-18T19:10:21.287Z,100324.71
2018-09-18T19:12:52.162Z,100325.94
2018-09-18T19:15:22.694Z,100320.31
2018-09-18T19:17:53.559Z,100324.16
2018-09-18T19:20:24.629Z,100323.88
2018-09-18T19:22:55.442Z,100319.34
2018-09-18T19:25:26.697Z,100324.03
2018-09-18T19:27:57.536Z,100329.91
2018-09-18T19:30:28.428Z,100329.48
2018-09-18T19:33:00.044Z,100324.45
2018-09-18T19:35:30.727Z,100329.42
2018-09-18T19:38:01.700Z,100333.27
2018-09-18T19:40:32.483Z,100341.58
2018-09-18T19:43:03.490Z,100336.73
2018-09-18T19:45:34.791Z,100338.98
2018-09-18T19:48:10.587Z,100342.91
2018-09-18T19:50:40.896Z,100336.84
2018-09-18T19:53:10.676Z,100341.34
2018-09-18T19:55:40.707Z,100334.44
2018-09-18T19:58:10.448Z,100343.08
2018-09-18T20:00:40.682Z,100338.84
2018-09-18T20:03:11.445Z,100342.39
2018-09-18T20:05:42.463Z,100339.60
2018-09-18T20:08:13.689Z,100339.69
2018-09-18T20:10:43.598Z,100339.45
2018-09-18T20:13:14.545Z,100340.60
2018-09-18T20:15:45.621Z,100339.31
2018-09-18T20:18:16.317Z,100351.73
2018-09-18T20:20:47.904Z,100349.48
2018-09-18T20:23:18.594Z,100349.03
2018-09-18T20:25:49.597Z,100347.74
2018-09-18T20:28:20.382Z,100351.65
2018-09-18T20:30:51.815Z,100356.55
2018-09-18T20:33:23.068Z,100356.75
2018-09-18T20:35:54.260Z,100355.64
2018-09-18T20:38:24.762Z,100352.55
2018-09-18T20:40:55.522Z,100358.25
2018-09-18T20:43:26.669Z,100359.91
2018-09-18T20:45:57.549Z,100355.79
2018-09-18T20:48:28.462Z,100360.50
2018-09-18T20:50:59.652Z,100359.99
2018-09-18T20:53:30.421Z,100362.56
2018-09-18T20:56:04.133Z,100360.20
2018-09-18T20:58:34.884Z,100357.91
2018-09-18T21:01:04.782Z,100360.46
2018-09-18T21:03:34.573Z,100359.41
2018-09-18T21:06:05.526Z,100358.80
2018-09-18T21:08:36.379Z,100353.53
2018-09-18T21:11:07.557Z,100357.64
2018-09-18T21:13:38.725Z,100360.58
2018-09-18T21:16:09.534Z,100364.70
2018-09-18T21:18:40.402Z,100362.23
2018-09-18T21:21:18.039Z,100360.33
2018-09-18T21:23:48.353Z,100358.16
2018-09-18T21:26:19.139Z,100354.92
2018-09-18T21:28:49.747Z,100358.67
2018-09-18T21:31:19.621Z,100358.77
2018-09-18T21:33:49.330Z,100362.35
2018-09-18T21:36:19.120Z,100360.44
2018-09-18T21:38:49.439Z,100346.62
2018-09-18T21:41:19.220Z,100368.77
2018-09-18T21:43:49.687Z,100352.64
2018-09-18T21:46:20.444Z,100364.95
2018-09-18T21:48:51.895Z,100359.70
2018-09-18T21:51:22.560Z,100365.33
2018-09-18T21:53:53.545Z,100364.79
2018-09-18T21:56:24.445Z,100367.87
2018-09-18T21:58:55.779Z,100367.23
2018-09-18T22:01:26.783Z,100376.67
2018-09-18T22:03:57.856Z,100371.41
2018-09-18T22:06:28.550Z,100366.59
2018-09-18T22:08:59.420Z,100372.93
2018-09-18T22:11:30.701Z,100372.77
2018-09-18T22:14:01.479Z,100370.40
2018-09-18T22:16:32.657Z,100377.59
2018-09-18T22:19:03.608Z,100377.62
2018-09-18T22:21:34.810Z,100374.31
2018-09-18T22:24:05.634Z,100375.46
2018-09-18T22:26:36.354Z,100382.95
2018-09-18T22:29:08.002Z,100377.98
2018-09-18T22:31:37.823Z,100376.37
2018-09-18T22:34:08.627Z,100380.45
2018-09-18T22:36:39.369Z,100388.72
2018-09-18T22:39:11.266Z,100394.52
2018-09-18T22:41:41.718Z,100385.72
2018-09-18T22:44:12.489Z,100393.17
2018-09-18T22:46:43.699Z,100387.73
2018-09-18T22:49:14.512Z,100384.94
2018-09-18T22:51:45.276Z,100381.80
2018-09-18T22:54:18.091Z,100387.87
2018-09-18T22:56:48.090Z,100381.99
2018-09-18T22:59:18.713Z,100377.64
2018-09-18T23:01:49.397Z,100378.08
2018-09-18T23:04:20.407Z,100380.41
2018-09-18T23:06:51.608Z,100378.14
2018-09-18T23:09:22.482Z,100382.19
2018-09-18T23:11:53.682Z,100377.70
2018-09-18T23:14:24.468Z,100380.84
2018-09-18T23:16:55.288Z,100382.99
2018-09-18T23:19:26.986Z,100383.97
2018-09-18T23:21:57.599Z,100380.63
2018-09-18T23:24:28.661Z,100387.62
2018-09-18T23:26:59.355Z,100375.80
2018-09-18T23:29:31.006Z,100378.06
2018-09-18T23:32:01.204Z,100379.97
2018-09-18T23:34:31.813Z,100380.09
2018-09-18T23:37:02.581Z,100377.40
2018-09-18T23:39:33.563Z,100380.70
2018-09-18T23:42:04.444Z,100383.52
2018-09-18T23:44:35.858Z,100380.83
2018-09-18T23:47:07.545Z,100385.11
2018-09-18T23:49:37.432Z,100381.26
2018-09-18T23:52:08.715Z,100382.23
2018-09-18T23:54:39.499Z,100379.42
2018-09-18T23:57:10.523Z,100378.26
2018-09-18T23:59:41.769Z,100383.09
